Chapleau, Canada
Current Conditions -  °F | °C
As of 6:00 PM on Saturday 20 Dec 2014 (Local Time) from CYLD Reporting Station
Overcast Overcast  
Wind Chill: 19°   Ceiling: 1300
Heat Index: 19°   Visibility: 15mi
Dew Point: 16°   Wind: 3mph
Humidity: 86%   Direction: 180°S
Pressure: 30.2"   Gusts: NA
Location:  47.84°N, 83.4°W
Report Text: CYLD 202300Z 18003KT 15SM OVC013 M07/M09 A3020 RMK ST8 SLP265
Loading
Personal Weather Stations






























Interactive Weather Map New forecast layout! Learn more

10-Day Weather Forecast

Advertisements
Track Severe Weather on mobile